createdAt,value
2019-01-13T00:00:43.845Z,8.70
2019-01-13T00:02:08.598Z,8.70
2019-01-13T00:03:12.891Z,8.70
2019-01-13T00:04:19.727Z,8.60
2019-01-13T00:05:28.271Z,8.70
2019-01-13T00:06:35.177Z,8.60
2019-01-13T00:07:39.237Z,8.60
2019-01-13T00:08:43.302Z,8.60
2019-01-13T00:09:49.688Z,8.70
2019-01-13T00:10:56.754Z,8.60
2019-01-13T00:12:00.936Z,8.70
2019-01-13T00:13:04.987Z,8.70
2019-01-13T00:14:09.265Z,8.70
2019-01-13T00:15:13.399Z,8.70
2019-01-13T00:16:19.791Z,8.70
2019-01-13T00:17:23.891Z,8.70
2019-01-13T00:18:27.975Z,8.60
2019-01-13T00:19:32.198Z,8.60
2019-01-13T00:20:37.842Z,8.70
2019-01-13T00:21:41.969Z,8.70
2019-01-13T00:22:46.180Z,8.70
2019-01-13T00:23:50.242Z,8.70
2019-01-13T00:24:54.340Z,8.70
2019-01-13T00:25:58.465Z,8.70
2019-01-13T00:27:04.172Z,8.70
2019-01-13T00:28:11.076Z,8.70
2019-01-13T00:29:15.186Z,8.70
2019-01-13T00:30:22.340Z,8.70
2019-01-13T00:31:26.435Z,8.70
2019-01-13T00:32:30.539Z,8.70
2019-01-13T00:33:37.510Z,8.70
2019-01-13T00:34:41.588Z,8.70
2019-01-13T00:35:46.998Z,8.70
2019-01-13T00:36:51.088Z,8.70
2019-01-13T00:37:55.227Z,8.70
2019-01-13T00:39:01.627Z,8.70
2019-01-13T00:40:09.184Z,8.70
2019-01-13T00:41:13.526Z,8.70
2019-01-13T00:42:17.616Z,8.70
2019-01-13T00:43:24.027Z,8.70
2019-01-13T00:44:28.103Z,8.70
2019-01-13T00:45:32.240Z,8.70
2019-01-13T00:46:36.303Z,8.70
2019-01-13T00:47:40.416Z,8.80
2019-01-13T00:48:44.506Z,8.80
2019-01-13T00:49:51.086Z,8.80
2019-01-13T00:50:55.164Z,8.80
2019-01-13T00:51:59.264Z,8.80
2019-01-13T00:53:03.329Z,8.70
2019-01-13T00:54:07.522Z,8.80
2019-01-13T00:55:11.983Z,8.70
2019-01-13T00:56:21.611Z,8.70
2019-01-13T00:57:25.671Z,8.80
2019-01-13T00:58:29.742Z,8.70
2019-01-13T00:59:33.835Z,8.70
2019-01-13T01:00:38.535Z,8.70
2019-01-13T01:01:42.671Z,8.70
2019-01-13T01:02:48.911Z,8.70
2019-01-13T01:03:54.744Z,8.70
2019-01-13T01:04:58.859Z,8.80
2019-01-13T01:06:02.942Z,8.80
2019-01-13T01:07:07.257Z,8.80
2019-01-13T01:08:11.556Z,8.70
2019-01-13T01:09:15.645Z,8.70
2019-01-13T01:10:21.543Z,8.70
2019-01-13T01:11:25.906Z,8.70
2019-01-13T01:12:29.967Z,8.70
2019-01-13T01:13:34.091Z,8.70
2019-01-13T01:14:38.210Z,8.70
2019-01-13T01:15:42.364Z,8.70
2019-01-13T01:16:46.423Z,8.70
2019-01-13T01:17:50.520Z,8.70
2019-01-13T01:18:54.579Z,8.80
2019-01-13T01:19:58.662Z,8.80
2019-01-13T01:21:02.796Z,8.80
2019-01-13T01:22:08.015Z,8.80
2019-01-13T01:23:12.206Z,8.80
2019-01-13T01:24:16.303Z,8.80
2019-01-13T01:25:21.471Z,8.80
2019-01-13T01:26:25.614Z,8.90
2019-01-13T01:27:29.750Z,8.80
2019-01-13T01:28:33.847Z,8.80
2019-01-13T01:29:39.051Z,8.80
2019-01-13T01:30:43.175Z,8.80
2019-01-13T01:31:47.344Z,8.80
2019-01-13T01:32:51.394Z,8.80
2019-01-13T01:33:55.479Z,8.70
2019-01-13T01:34:59.607Z,8.70
2019-01-13T01:36:03.668Z,8.70
2019-01-13T01:37:07.800Z,8.70
2019-01-13T01:38:11.982Z,8.70
2019-01-13T01:39:16.051Z,8.70
2019-01-13T01:40:21.177Z,8.80
2019-01-13T01:41:25.259Z,8.80
2019-01-13T01:42:29.368Z,8.80
2019-01-13T01:43:33.533Z,8.80
2019-01-13T01:44:37.635Z,8.80
2019-01-13T01:45:41.727Z,8.80
2019-01-13T01:46:48.610Z,8.70
2019-01-13T01:47:52.699Z,8.80
2019-01-13T01:48:56.831Z,8.80
2019-01-13T01:50:02.507Z,8.80
2019-01-13T01:51:06.714Z,8.80
2019-01-13T01:52:11.029Z,8.70
2019-01-13T01:53:16.879Z,8.70
2019-01-13T01:54:20.982Z,8.70
2019-01-13T01:55:25.067Z,8.70
2019-01-13T01:56:29.127Z,8.70
2019-01-13T01:57:33.253Z,8.80
2019-01-13T01:58:39.411Z,8.80
2019-01-13T01:59:44.347Z,8.70
2019-01-13T02:00:48.405Z,8.80
2019-01-13T02:01:52.493Z,8.80
2019-01-13T02:02:58.154Z,8.80
2019-01-13T02:04:02.308Z,8.80
2019-01-13T02:05:06.425Z,8.80
2019-01-13T02:06:10.581Z,8.70
2019-01-13T02:07:14.671Z,8.70
2019-01-13T02:08:18.818Z,8.70
2019-01-13T02:09:22.938Z,8.80
2019-01-13T02:10:28.216Z,8.80
2019-01-13T02:11:32.334Z,8.80
2019-01-13T02:12:36.408Z,8.80
2019-01-13T02:13:40.463Z,8.80
2019-01-13T02:14:44.551Z,8.80
2019-01-13T02:15:48.635Z,8.80
2019-01-13T02:16:52.686Z,8.80
2019-01-13T02:17:56.928Z,8.80
2019-01-13T02:19:00.996Z,8.70
2019-01-13T02:20:07.892Z,8.70
2019-01-13T02:21:12.335Z,8.70
2019-01-13T02:22:16.431Z,8.70
2019-01-13T02:23:20.542Z,8.70
2019-01-13T02:24:24.619Z,8.80
2019-01-13T02:25:28.871Z,8.80
2019-01-13T02:26:32.939Z,8.80
2019-01-13T02:27:37.011Z,8.80
2019-01-13T02:28:41.123Z,8.80
2019-01-13T02:29:45.215Z,8.80
2019-01-13T02:30:51.635Z,8.80
2019-01-13T02:31:58.131Z,8.80
2019-01-13T02:33:02.200Z,8.80
2019-01-13T02:34:06.266Z,8.80
2019-01-13T02:35:10.543Z,8.80
2019-01-13T02:36:14.869Z,8.80
2019-01-13T02:37:18.931Z,8.80
2019-01-13T02:38:26.119Z,8.80
2019-01-13T02:39:32.962Z,8.80
2019-01-13T02:40:37.077Z,8.80
2019-01-13T02:41:41.231Z,8.80
2019-01-13T02:42:45.308Z,8.80
2019-01-13T02:43:49.356Z,8.80
2019-01-13T02:44:53.412Z,8.80
2019-01-13T02:45:57.504Z,8.80
2019-01-13T02:47:04.659Z,8.80
2019-01-13T02:48:08.859Z,8.80
2019-01-13T02:49:12.923Z,8.80
2019-01-13T02:50:17.028Z,8.80
2019-01-13T02:51:21.115Z,8.80
2019-01-13T02:52:25.195Z,8.80
2019-01-13T02:53:29.263Z,8.80
2019-01-13T02:54:33.327Z,8.80
2019-01-13T02:55:37.386Z,8.80
2019-01-13T02:56:41.467Z,8.80
2019-01-13T02:57:45.536Z,8.80
2019-01-13T02:58:49.606Z,8.80
2019-01-13T02:59:53.748Z,8.80
2019-01-13T03:01:01.532Z,8.80
2019-01-13T03:02:05.617Z,8.80
2019-01-13T03:03:12.707Z,8.80
2019-01-13T03:04:19.109Z,8.80
2019-01-13T03:05:23.231Z,8.80
2019-01-13T03:06:27.303Z,8.80
2019-01-13T03:07:31.398Z,8.90
2019-01-13T03:08:35.461Z,8.90
2019-01-13T03:09:39.519Z,8.90
2019-01-13T03:10:43.642Z,8.80
2019-01-13T03:11:47.718Z,8.80
2019-01-13T03:12:51.825Z,8.80
2019-01-13T03:13:55.957Z,8.80
2019-01-13T03:15:00.263Z,8.80
2019-01-13T03:16:05.057Z,8.90
2019-01-13T03:17:09.510Z,8.80
2019-01-13T03:18:14.851Z,8.80
2019-01-13T03:19:18.899Z,8.80
2019-01-13T03:20:23.063Z,8.80
2019-01-13T03:21:27.146Z,8.80
2019-01-13T03:22:31.279Z,8.80
2019-01-13T03:23:37.508Z,8.80
2019-01-13T03:24:41.564Z,8.80
2019-01-13T03:25:45.658Z,8.80
2019-01-13T03:26:50.995Z,8.80
2019-01-13T03:27:55.118Z,8.80
2019-01-13T03:28:59.192Z,8.80
2019-01-13T03:30:03.288Z,8.80
2019-01-13T03:31:11.914Z,8.80
2019-01-13T03:32:13.401Z,8.80
2019-01-13T03:33:17.489Z,8.80
2019-01-13T03:34:21.549Z,8.80
2019-01-13T03:35:25.612Z,8.80
2019-01-13T03:36:29.727Z,8.80
2019-01-13T03:37:33.783Z,8.80
2019-01-13T03:38:37.872Z,8.80
2019-01-13T03:39:41.932Z,8.90
2019-01-13T03:40:46.010Z,8.80
2019-01-13T03:41:50.120Z,8.90
2019-01-13T03:42:54.231Z,8.90
2019-01-13T03:43:58.328Z,8.80
2019-01-13T03:45:02.401Z,8.80
2019-01-13T03:46:06.451Z,8.80
2019-01-13T03:47:10.732Z,8.80
2019-01-13T03:48:14.824Z,8.80
2019-01-13T03:49:18.983Z,8.80
2019-01-13T03:50:24.003Z,8.80
2019-01-13T03:51:28.067Z,8.80
2019-01-13T03:52:32.140Z,8.80
2019-01-13T03:53:36.195Z,8.80
2019-01-13T03:54:40.283Z,8.80
2019-01-13T03:55:44.351Z,8.80
2019-01-13T03:56:48.518Z,8.80
2019-01-13T03:57:52.682Z,8.90
2019-01-13T03:58:56.789Z,8.90
2019-01-13T04:00:00.940Z,8.90
2019-01-13T04:01:05.070Z,8.90
2019-01-13T04:02:09.252Z,8.90
2019-01-13T04:03:13.363Z,8.90
2019-01-13T04:04:17.417Z,8.90
2019-01-13T04:05:21.510Z,8.90
2019-01-13T04:06:25.563Z,8.90
2019-01-13T04:07:29.615Z,8.90
2019-01-13T04:08:33.675Z,8.90
2019-01-13T04:09:40.466Z,8.90
2019-01-13T04:10:44.583Z,8.90
2019-01-13T04:11:48.650Z,8.90
2019-01-13T04:12:52.711Z,8.90
2019-01-13T04:13:56.769Z,8.90
2019-01-13T04:15:00.867Z,8.90
2019-01-13T04:16:06.525Z,8.90
2019-01-13T04:17:10.759Z,8.90
2019-01-13T04:18:14.906Z,8.90
2019-01-13T04:19:19.239Z,8.90
2019-01-13T04:20:23.307Z,8.90
2019-01-13T04:21:27.395Z,8.90
2019-01-13T04:22:31.446Z,8.90
2019-01-13T04:23:35.553Z,8.90
2019-01-13T04:25:43.152Z,8.90
2019-01-13T04:26:47.363Z,8.90
2019-01-13T04:27:51.432Z,8.90
2019-01-13T04:28:55.556Z,8.90
2019-01-13T04:29:59.614Z,8.90
2019-01-13T04:31:03.664Z,8.90
2019-01-13T04:32:07.790Z,8.90
2019-01-13T04:33:12.078Z,8.90
2019-01-13T04:34:16.139Z,8.90
2019-01-13T04:35:20.242Z,8.90
2019-01-13T04:36:24.368Z,8.90
2019-01-13T04:37:28.454Z,8.90
2019-01-13T04:38:32.506Z,8.90
2019-01-13T04:39:36.562Z,8.90
2019-01-13T04:40:40.631Z,8.90
2019-01-13T04:41:44.696Z,8.90
2019-01-13T04:42:48.783Z,8.90
2019-01-13T04:43:52.859Z,8.90
2019-01-13T04:44:56.904Z,8.90
2019-01-13T04:46:00.965Z,8.90
2019-01-13T04:47:05.007Z,8.90
2019-01-13T04:48:09.214Z,8.90
2019-01-13T04:49:13.530Z,8.90
2019-01-13T04:50:17.587Z,8.90
2019-01-13T04:51:21.647Z,8.90
2019-01-13T04:52:25.723Z,8.90
2019-01-13T04:53:29.809Z,8.90
2019-01-13T04:54:33.856Z,8.90
2019-01-13T04:55:37.925Z,8.90
2019-01-13T04:56:41.979Z,9.00
2019-01-13T04:57:46.044Z,9.00
2019-01-13T04:58:50.196Z,9.00
2019-01-13T04:59:54.260Z,9.00
2019-01-13T05:00:58.307Z,9.00
2019-01-13T05:02:02.360Z,9.00
2019-01-13T05:03:06.431Z,9.00
2019-01-13T05:04:10.684Z,9.00
2019-01-13T05:05:14.811Z,9.00
2019-01-13T05:06:18.920Z,9.00
2019-01-13T05:07:22.983Z,9.00
2019-01-13T05:08:27.043Z,9.00
2019-01-13T05:09:31.216Z,9.00
2019-01-13T05:10:35.319Z,9.00
2019-01-13T05:11:39.387Z,9.00
2019-01-13T05:12:43.451Z,9.00
2019-01-13T05:13:47.555Z,9.00
2019-01-13T05:14:51.723Z,9.00
2019-01-13T05:15:55.774Z,9.00
2019-01-13T05:16:59.835Z,9.00
2019-01-13T05:18:03.900Z,9.00
2019-01-13T05:19:08.122Z,9.00
2019-01-13T05:20:14.295Z,9.00
2019-01-13T05:21:18.377Z,9.00
2019-01-13T05:22:22.436Z,9.00
2019-01-13T05:23:26.495Z,9.00
2019-01-13T05:24:30.547Z,9.00
2019-01-13T05:25:34.631Z,9.00
2019-01-13T05:26:38.701Z,9.00
2019-01-13T05:27:42.750Z,9.00
2019-01-13T05:28:46.812Z,9.00
2019-01-13T05:29:50.873Z,9.00
2019-01-13T05:30:54.960Z,9.00
2019-01-13T05:31:59.012Z,9.00
2019-01-13T05:33:03.116Z,9.00
2019-01-13T05:34:07.244Z,9.00
2019-01-13T05:35:11.482Z,9.00
2019-01-13T05:36:15.660Z,9.00
2019-01-13T05:37:19.706Z,9.00
2019-01-13T05:38:23.786Z,9.00
2019-01-13T05:39:27.839Z,9.00
2019-01-13T05:40:31.900Z,9.00
2019-01-13T05:41:35.992Z,9.00
2019-01-13T05:42:40.056Z,9.10
2019-01-13T05:43:44.116Z,9.00
2019-01-13T05:44:48.179Z,9.00
2019-01-13T05:45:52.240Z,9.00
2019-01-13T05:46:56.322Z,9.10
2019-01-13T05:48:00.388Z,9.10
2019-01-13T05:49:04.487Z,9.10
2019-01-13T05:50:10.478Z,9.00
2019-01-13T05:51:14.647Z,9.00
2019-01-13T05:52:18.801Z,9.10
2019-01-13T05:53:22.854Z,9.10
2019-01-13T05:54:26.914Z,9.10
2019-01-13T05:55:30.967Z,9.10
2019-01-13T05:56:35.020Z,9.10
2019-01-13T05:57:39.095Z,9.10
2019-01-13T05:58:43.186Z,9.10
2019-01-13T05:59:47.248Z,9.10
2019-01-13T06:00:51.294Z,9.10
2019-01-13T06:01:55.363Z,9.10
2019-01-13T06:02:59.435Z,9.10
2019-01-13T06:04:03.493Z,9.10
2019-01-13T06:05:08.021Z,9.10
2019-01-13T06:06:12.358Z,9.10
2019-01-13T06:07:16.418Z,9.10
2019-01-13T06:08:20.580Z,9.20
2019-01-13T06:09:24.755Z,9.10
2019-01-13T06:10:28.815Z,9.10
2019-01-13T06:11:32.880Z,9.10
2019-01-13T06:12:36.959Z,9.10
2019-01-13T06:13:41.047Z,9.20
2019-01-13T06:14:45.183Z,9.20
2019-01-13T06:15:49.243Z,9.20
2019-01-13T06:16:53.301Z,9.20
2019-01-13T06:17:57.383Z,9.20
2019-01-13T06:19:01.519Z,9.20
2019-01-13T06:20:08.582Z,9.10
2019-01-13T06:21:12.700Z,9.10
2019-01-13T06:22:16.815Z,9.10
2019-01-13T06:23:20.908Z,9.10
2019-01-13T06:24:25.052Z,9.10
2019-01-13T06:25:29.115Z,9.10
2019-01-13T06:26:33.172Z,9.10
2019-01-13T06:27:37.270Z,9.10
2019-01-13T06:28:41.323Z,9.10
2019-01-13T06:29:45.450Z,9.10
2019-01-13T06:30:49.499Z,9.10
2019-01-13T06:31:56.481Z,9.10
2019-01-13T06:32:59.397Z,9.10
2019-01-13T06:34:03.451Z,9.10
2019-01-13T06:35:07.600Z,9.10
2019-01-13T06:36:11.919Z,9.10
2019-01-13T06:37:15.989Z,9.10
2019-01-13T06:38:20.115Z,9.10
2019-01-13T06:39:24.198Z,9.00
2019-01-13T06:40:28.291Z,9.00
2019-01-13T06:41:32.402Z,9.00
2019-01-13T06:42:36.467Z,9.10
2019-01-13T06:43:40.531Z,9.00
2019-01-13T06:44:44.590Z,9.10
2019-01-13T06:45:48.658Z,9.00
2019-01-13T06:46:52.791Z,9.10
2019-01-13T06:47:56.851Z,9.00
2019-01-13T06:49:01.075Z,9.00
2019-01-13T06:50:05.732Z,9.10
2019-01-13T06:51:10.014Z,9.00
2019-01-13T06:52:14.247Z,9.00
2019-01-13T06:53:18.318Z,9.00
2019-01-13T06:54:22.384Z,9.00
2019-01-13T06:55:26.454Z,9.00
2019-01-13T06:56:30.619Z,9.00
2019-01-13T06:57:34.678Z,9.00
2019-01-13T06:58:38.734Z,9.00
2019-01-13T06:59:42.787Z,9.00
2019-01-13T07:00:46.839Z,9.00
2019-01-13T07:01:50.940Z,9.00
2019-01-13T07:02:55.077Z,9.00
2019-01-13T07:03:59.177Z,9.00
2019-01-13T07:05:03.379Z,9.00
2019-01-13T07:06:08.586Z,9.00
2019-01-13T07:07:16.893Z,9.10
2019-01-13T07:08:22.614Z,9.00
2019-01-13T07:09:26.695Z,9.00
2019-01-13T07:10:30.840Z,9.10
2019-01-13T07:11:34.924Z,9.10
2019-01-13T07:12:39.093Z,9.10
2019-01-13T07:13:47.856Z,9.10
2019-01-13T07:14:58.112Z,9.10
2019-01-13T07:16:14.044Z,9.10
2019-01-13T07:17:24.540Z,9.10
2019-01-13T07:18:33.983Z,9.10
2019-01-13T07:19:46.827Z,9.10
2019-01-13T07:20:56.178Z,9.10
2019-01-13T07:22:03.546Z,9.10
2019-01-13T07:23:14.696Z,9.00
2019-01-13T07:24:20.755Z,9.10
2019-01-13T07:25:24.851Z,9.10
2019-01-13T07:26:33.888Z,9.10
2019-01-13T07:27:37.831Z,9.10
2019-01-13T07:28:48.258Z,9.10
2019-01-13T07:30:03.733Z,9.10
2019-01-13T07:31:24.007Z,9.10
2019-01-13T07:32:51.335Z,9.10
2019-01-13T07:33:46.998Z,9.10
2019-01-13T07:34:54.052Z,9.10
2019-01-13T07:36:05.654Z,9.10
2019-01-13T07:37:09.799Z,9.10
2019-01-13T07:38:26.370Z,9.10
2019-01-13T07:39:33.638Z,9.10
2019-01-13T07:40:51.819Z,9.10
2019-01-13T07:42:01.936Z,9.10
2019-01-13T07:43:13.735Z,9.20
2019-01-13T07:44:17.798Z,9.20
2019-01-13T07:45:24.286Z,9.20
2019-01-13T07:46:28.899Z,9.20
2019-01-13T07:47:40.702Z,9.20
2019-01-13T07:48:45.331Z,9.20
2019-01-13T07:49:55.246Z,9.20
2019-01-13T07:51:03.650Z,9.20
2019-01-13T07:52:14.156Z,9.20
2019-01-13T07:53:20.418Z,9.20
2019-01-13T07:54:25.096Z,9.20
2019-01-13T07:55:31.768Z,9.20
2019-01-13T07:56:38.877Z,9.20
2019-01-13T07:57:49.455Z,9.20
2019-01-13T07:58:52.543Z,9.20
2019-01-13T08:00:00.459Z,9.20
2019-01-13T08:01:06.302Z,9.20
2019-01-13T08:02:17.825Z,9.20
2019-01-13T08:03:28.612Z,9.20
2019-01-13T08:04:34.129Z,9.20
2019-01-13T08:05:38.256Z,9.20
2019-01-13T08:06:50.202Z,9.20
2019-01-13T08:08:01.918Z,9.20
2019-01-13T08:09:09.166Z,9.30
2019-01-13T08:10:16.604Z,9.30
2019-01-13T08:11:21.346Z,9.30
2019-01-13T08:12:36.399Z,9.20
2019-01-13T08:13:42.436Z,9.20
2019-01-13T08:14:53.891Z,9.20
2019-01-13T08:16:05.374Z,9.30
2019-01-13T08:17:16.307Z,9.30
2019-01-13T08:18:20.833Z,9.20
2019-01-13T08:19:26.671Z,9.20
2019-01-13T08:20:33.493Z,9.20
2019-01-13T08:21:37.773Z,9.20
2019-01-13T08:22:47.808Z,9.20
2019-01-13T08:23:52.132Z,9.20
2019-01-13T08:24:56.566Z,9.30
2019-01-13T08:26:03.951Z,9.30
2019-01-13T08:27:13.488Z,9.30
2019-01-13T08:28:18.547Z,9.30
2019-01-13T08:29:25.379Z,9.30
2019-01-13T08:30:29.523Z,9.30
2019-01-13T08:31:33.643Z,9.30
2019-01-13T08:32:39.688Z,9.30
2019-01-13T08:33:50.323Z,9.40
2019-01-13T08:35:02.990Z,9.40
2019-01-13T08:36:07.121Z,9.40
2019-01-13T08:37:11.414Z,9.40
2019-01-13T08:38:15.787Z,9.40
2019-01-13T08:39:20.294Z,9.40
2019-01-13T08:40:24.802Z,9.40
2019-01-13T08:41:40.915Z,9.40
2019-01-13T08:42:49.945Z,9.40
2019-01-13T08:43:57.437Z,9.40
2019-01-13T08:45:10.830Z,9.40
2019-01-13T08:46:18.864Z,9.40
2019-01-13T08:47:25.172Z,9.40
2019-01-13T08:48:34.767Z,9.40
2019-01-13T08:49:38.880Z,9.40
2019-01-13T08:50:48.860Z,9.40
2019-01-13T08:51:53.631Z,9.40
2019-01-13T08:53:05.093Z,9.40
2019-01-13T08:54:11.695Z,9.40
2019-01-13T08:55:15.842Z,9.40
2019-01-13T08:56:21.469Z,9.40
2019-01-13T08:57:30.368Z,9.50
2019-01-13T08:58:39.656Z,9.50
2019-01-13T08:59:48.476Z,9.50
2019-01-13T09:00:58.236Z,9.50
2019-01-13T09:02:03.777Z,9.50
2019-01-13T09:03:17.981Z,9.40
2019-01-13T09:04:28.749Z,9.50
2019-01-13T09:05:57.459Z,9.40
2019-01-13T09:07:05.968Z,9.40
2019-01-13T09:08:13.687Z,9.40
2019-01-13T09:09:18.426Z,9.40
2019-01-13T09:10:32.944Z,9.40
2019-01-13T09:11:37.006Z,9.50
2019-01-13T09:12:48.017Z,9.40
2019-01-13T09:13:57.490Z,9.40
2019-01-13T09:15:01.964Z,9.40
2019-01-13T09:16:08.291Z,9.40
2019-01-13T09:17:27.033Z,9.40
2019-01-13T09:18:42.845Z,9.40
2019-01-13T09:19:47.137Z,9.40
2019-01-13T09:20:55.968Z,9.40
2019-01-13T09:22:04.786Z,9.40
2019-01-13T09:23:17.261Z,9.40
2019-01-13T09:24:19.042Z,9.40
2019-01-13T09:25:27.039Z,9.40
2019-01-13T09:26:33.392Z,9.40
2019-01-13T09:27:42.565Z,9.40
2019-01-13T09:28:51.904Z,9.40
2019-01-13T09:30:04.576Z,9.40
2019-01-13T09:31:08.706Z,9.40
2019-01-13T09:32:13.553Z,9.40
2019-01-13T09:33:25.422Z,9.40
2019-01-13T09:34:45.906Z,9.40
2019-01-13T09:35:55.411Z,9.40
2019-01-13T09:37:05.218Z,9.40
2019-01-13T09:38:09.948Z,9.40
2019-01-13T09:39:14.234Z,9.40
2019-01-13T09:40:54.703Z,9.40
2019-01-13T09:41:59.042Z,9.40
2019-01-13T09:43:04.165Z,9.50
2019-01-13T09:44:11.710Z,9.50
2019-01-13T09:45:31.016Z,9.40
2019-01-13T09:46:35.076Z,9.40
2019-01-13T09:47:42.240Z,9.40
2019-01-13T09:48:49.330Z,9.40
2019-01-13T09:49:58.733Z,9.50
2019-01-13T09:51:03.225Z,9.50
2019-01-13T09:52:08.023Z,9.50
2019-01-13T09:53:12.223Z,9.40
2019-01-13T09:54:16.464Z,9.40
2019-01-13T09:55:24.335Z,9.40
2019-01-13T09:56:43.463Z,9.40
2019-01-13T09:57:52.136Z,9.40
2019-01-13T09:58:56.278Z,9.40
2019-01-13T10:00:02.377Z,9.40
2019-01-13T10:01:09.882Z,9.40
2019-01-13T10:02:14.498Z,9.40
2019-01-13T10:03:25.020Z,9.40
2019-01-13T10:04:36.539Z,9.40
2019-01-13T10:05:40.789Z,9.40
2019-01-13T10:06:57.141Z,9.40
2019-01-13T10:08:03.032Z,9.40
2019-01-13T10:09:08.736Z,9.40
2019-01-13T10:10:18.064Z,9.40
2019-01-13T10:11:33.822Z,9.40
2019-01-13T10:12:41.210Z,9.40
2019-01-13T10:13:53.924Z,9.40
2019-01-13T10:15:07.234Z,9.40
2019-01-13T10:16:11.660Z,9.40
2019-01-13T10:17:16.151Z,9.40
2019-01-13T10:18:23.614Z,9.40
2019-01-13T10:19:28.450Z,9.40
2019-01-13T10:20:32.498Z,9.40
2019-01-13T10:21:39.631Z,9.40
2019-01-13T10:22:51.383Z,9.40
2019-01-13T10:23:59.622Z,9.40
2019-01-13T10:25:04.127Z,9.50
2019-01-13T10:26:16.819Z,9.50
2019-01-13T10:27:20.958Z,9.50
2019-01-13T10:28:27.783Z,9.50
2019-01-13T10:29:39.146Z,9.50
2019-01-13T10:30:46.386Z,9.50
2019-01-13T10:31:51.211Z,9.50
2019-01-13T10:33:00.354Z,9.50
2019-01-13T10:34:10.477Z,9.50
2019-01-13T10:35:19.895Z,9.50
2019-01-13T10:36:28.738Z,9.50
2019-01-13T10:37:37.619Z,9.50
2019-01-13T10:38:47.820Z,9.50
2019-01-13T10:40:06.920Z,9.50
2019-01-13T10:41:04.771Z,9.50
2019-01-13T10:42:24.574Z,9.50
2019-01-13T10:43:33.833Z,9.50
2019-01-13T10:45:00.042Z,9.50
2019-01-13T10:46:15.876Z,9.50
2019-01-13T10:47:28.737Z,9.50
2019-01-13T10:48:36.580Z,9.40
2019-01-13T10:49:59.065Z,9.50
2019-01-13T10:51:09.564Z,9.50
2019-01-13T10:52:21.064Z,9.50
2019-01-13T10:53:31.791Z,9.50
2019-01-13T10:54:46.404Z,9.60
2019-01-13T10:55:55.556Z,9.60
2019-01-13T10:57:04.889Z,9.60
2019-01-13T10:58:13.134Z,9.60
2019-01-13T11:00:54.928Z,9.50
2019-01-13T11:02:06.176Z,9.50
2019-01-13T11:03:16.547Z,9.50
2019-01-13T11:04:22.843Z,9.50
2019-01-13T11:05:29.821Z,9.50
2019-01-13T11:06:55.120Z,9.60
2019-01-13T11:07:59.243Z,9.60
2019-01-13T11:09:08.404Z,9.60
2019-01-13T11:10:30.611Z,9.60
2019-01-13T11:11:56.121Z,9.60
2019-01-13T11:13:08.629Z,9.60
2019-01-13T11:14:13.582Z,9.60
2019-01-13T11:15:28.640Z,9.60
2019-01-13T11:16:37.846Z,9.60
2019-01-13T11:17:50.796Z,9.60
2019-01-13T11:18:58.060Z,9.60
2019-01-13T11:20:11.566Z,9.60
2019-01-13T11:21:43.215Z,9.60
2019-01-13T11:22:51.392Z,9.60
2019-01-13T11:23:57.902Z,9.70
2019-01-13T11:25:02.521Z,9.70
2019-01-13T11:26:10.658Z,9.70
2019-01-13T11:27:18.532Z,9.70
2019-01-13T11:28:28.069Z,9.70
2019-01-13T11:29:35.397Z,9.70
2019-01-13T11:30:45.345Z,9.70
2019-01-13T11:31:56.287Z,9.70
2019-01-13T11:33:00.394Z,9.70
2019-01-13T11:34:17.333Z,9.80
2019-01-13T11:35:27.870Z,9.80
2019-01-13T11:36:40.242Z,9.80
2019-01-13T11:38:01.763Z,9.80
2019-01-13T11:39:13.002Z,9.80
2019-01-13T11:40:30.161Z,9.80
2019-01-13T11:41:57.062Z,9.80
2019-01-13T11:43:07.200Z,9.80
2019-01-13T11:44:16.136Z,9.70
2019-01-13T11:45:22.554Z,9.70
2019-01-13T11:46:28.766Z,9.70
2019-01-13T11:47:39.261Z,9.70
2019-01-13T11:48:52.125Z,9.70
2019-01-13T11:50:06.475Z,9.70
2019-01-13T11:51:14.016Z,9.70
2019-01-13T11:52:18.086Z,9.70
2019-01-13T11:53:27.920Z,9.60
2019-01-13T11:54:34.895Z,9.60
2019-01-13T11:55:46.848Z,9.60
2019-01-13T11:57:06.386Z,9.60
2019-01-13T11:58:18.770Z,9.70
2019-01-13T11:59:32.011Z,9.60
2019-01-13T12:00:44.901Z,9.60
2019-01-13T12:01:49.644Z,9.70
2019-01-13T12:03:16.498Z,9.60
2019-01-13T12:04:32.313Z,9.60
2019-01-13T12:05:49.866Z,9.60
2019-01-13T12:07:13.247Z,9.60
2019-01-13T12:08:26.416Z,9.60
2019-01-13T12:09:34.171Z,9.60
2019-01-13T12:10:59.874Z,9.60
2019-01-13T12:12:03.943Z,9.60
2019-01-13T12:13:10.543Z,9.60
2019-01-13T12:14:21.567Z,9.60
2019-01-13T12:15:31.460Z,9.60
2019-01-13T12:16:39.547Z,9.60
2019-01-13T12:17:44.133Z,9.60
2019-01-13T12:18:49.938Z,9.60
2019-01-13T12:19:53.997Z,9.60
2019-01-13T12:21:23.000Z,9.60
2019-01-13T12:22:21.409Z,9.60
2019-01-13T12:23:25.863Z,9.60
2019-01-13T12:24:33.099Z,9.60
2019-01-13T12:25:39.944Z,9.60
2019-01-13T12:27:10.511Z,9.60
2019-01-13T12:27:57.545Z,9.60
2019-01-13T12:29:06.789Z,9.60
2019-01-13T12:30:16.803Z,9.60
2019-01-13T12:31:21.624Z,9.60
2019-01-13T12:32:26.343Z,9.60
2019-01-13T12:33:33.079Z,9.70
2019-01-13T12:34:37.142Z,9.70
2019-01-13T12:35:47.352Z,9.70
2019-01-13T12:36:54.947Z,9.70
2019-01-13T12:38:00.944Z,9.60
2019-01-13T12:39:10.878Z,9.60
2019-01-13T12:40:25.183Z,9.70
2019-01-13T12:41:29.252Z,9.70
2019-01-13T12:42:39.681Z,9.60
2019-01-13T12:43:44.207Z,9.60
2019-01-13T12:44:52.866Z,9.60
2019-01-13T12:46:04.962Z,9.60
2019-01-13T12:47:11.300Z,9.70
2019-01-13T12:48:17.882Z,9.70
2019-01-13T12:49:28.462Z,9.70
2019-01-13T12:50:34.513Z,9.70
2019-01-13T12:51:45.063Z,9.70
2019-01-13T12:52:54.083Z,9.70
2019-01-13T12:54:03.171Z,9.70
2019-01-13T12:55:09.616Z,9.70
2019-01-13T12:56:26.115Z,9.70
2019-01-13T12:57:33.908Z,9.70
2019-01-13T12:58:43.720Z,9.70
2019-01-13T12:59:52.684Z,9.70
2019-01-13T13:01:05.913Z,9.70
2019-01-13T13:02:11.815Z,9.70
2019-01-13T13:03:19.358Z,9.70
2019-01-13T13:04:25.104Z,9.70
2019-01-13T13:05:35.665Z,9.70
2019-01-13T13:06:48.842Z,9.70
2019-01-13T13:08:02.188Z,9.70
2019-01-13T13:09:11.372Z,9.70
2019-01-13T13:10:46.414Z,9.70
2019-01-13T13:11:50.530Z,9.70
2019-01-13T13:13:03.900Z,9.70
2019-01-13T13:14:14.419Z,9.70
2019-01-13T13:15:30.686Z,9.70
2019-01-13T13:16:35.047Z,9.70
2019-01-13T13:18:01.656Z,9.70
2019-01-13T13:19:09.113Z,9.70
2019-01-13T13:20:14.018Z,9.70
2019-01-13T13:21:18.744Z,9.70
2019-01-13T13:22:29.956Z,9.70
2019-01-13T13:23:47.667Z,9.70
2019-01-13T13:24:53.675Z,9.70
2019-01-13T13:26:04.322Z,9.70
2019-01-13T13:27:08.478Z,9.70
2019-01-13T13:28:13.093Z,9.80
2019-01-13T13:29:19.472Z,9.70
2019-01-13T13:30:23.876Z,9.70
2019-01-13T13:31:33.621Z,9.80
2019-01-13T13:32:37.666Z,9.70
2019-01-13T13:33:44.806Z,9.70
2019-01-13T13:35:08.645Z,9.70
2019-01-13T13:36:13.610Z,9.70
2019-01-13T13:37:22.324Z,9.70
2019-01-13T13:38:33.700Z,9.70
2019-01-13T13:39:41.379Z,9.70
2019-01-13T13:40:50.565Z,9.70
2019-01-13T13:42:01.935Z,9.70
2019-01-13T13:43:14.207Z,9.70
2019-01-13T13:44:21.581Z,9.70
2019-01-13T13:45:39.085Z,9.70
2019-01-13T13:46:42.300Z,9.70
2019-01-13T13:47:46.889Z,9.70
2019-01-13T13:49:01.332Z,9.70
2019-01-13T13:50:10.137Z,9.70
2019-01-13T13:51:14.584Z,9.70
2019-01-13T13:52:18.784Z,9.70
2019-01-13T13:53:23.324Z,9.70
2019-01-13T13:54:38.920Z,9.70
2019-01-13T13:55:43.239Z,9.70
2019-01-13T13:56:50.210Z,9.70
2019-01-13T13:57:54.419Z,9.70
2019-01-13T13:58:58.702Z,9.70
2019-01-13T14:00:10.158Z,9.70
2019-01-13T14:01:21.861Z,9.80
2019-01-13T14:02:35.396Z,9.70
2019-01-13T14:03:45.881Z,9.70
2019-01-13T14:04:52.727Z,9.70
2019-01-13T14:05:57.096Z,9.70
2019-01-13T14:07:04.019Z,9.70
2019-01-13T14:08:10.628Z,9.70
2019-01-13T14:09:21.021Z,9.70
2019-01-13T14:10:38.696Z,9.70
2019-01-13T14:11:45.726Z,9.70
2019-01-13T14:12:50.299Z,9.70
2019-01-13T14:13:54.795Z,9.70
2019-01-13T14:14:59.430Z,9.70
2019-01-13T14:16:07.383Z,9.70
2019-01-13T14:17:11.958Z,9.70
2019-01-13T14:18:16.625Z,9.70
2019-01-13T14:19:24.276Z,9.70
2019-01-13T14:20:31.606Z,9.70
2019-01-13T14:21:40.286Z,9.70
2019-01-13T14:22:44.108Z,9.70
2019-01-13T14:23:48.839Z,9.70
2019-01-13T14:25:00.921Z,9.70
2019-01-13T14:26:05.214Z,9.70
2019-01-13T14:27:10.043Z,9.70
2019-01-13T14:28:20.710Z,9.70
2019-01-13T14:29:34.055Z,9.70
2019-01-13T14:30:45.331Z,9.70
2019-01-13T14:31:49.455Z,9.70
2019-01-13T14:32:59.684Z,9.60
2019-01-13T14:34:06.303Z,9.60
2019-01-13T14:35:19.671Z,9.70
2019-01-13T14:36:24.484Z,9.70
2019-01-13T14:37:29.038Z,9.70
2019-01-13T14:38:33.151Z,9.70
2019-01-13T14:39:37.451Z,9.70
2019-01-13T14:40:41.809Z,9.70
2019-01-13T14:41:46.211Z,9.70
2019-01-13T14:42:53.216Z,9.70
2019-01-13T14:43:57.575Z,9.70
2019-01-13T14:45:04.678Z,9.60
2019-01-13T14:46:12.371Z,9.60
2019-01-13T14:47:20.870Z,9.60
2019-01-13T14:48:25.143Z,9.60
2019-01-13T14:49:30.679Z,9.70
2019-01-13T14:50:37.429Z,9.70
2019-01-13T14:51:44.439Z,9.60
2019-01-13T14:52:56.006Z,9.60